Portada
METAR-TAF:

METAR-TAF

Aeroports :

Zahedan, Iran

latitud: 29-28N, longitud: 060-53E, altitud: 1370 m

Observació

L'informe es va fer fa 20 minuts, a les 15:30 UTC
Vent 14 kt del Nord/Nord-Est
Temperatura 35°C
Humitat 16%
Pressió 1003 hPa
Visibilitat: 3500 m
sorra, Pols estès,

METAR: OIZH 251530Z 03014KT 3500 SA DU NSC 35/05 Q1003 A2963

Hora: 20:20 (15:50 UTC)

Pronòstic

L'informe es va fer fa 55 minuts, a les 14:55 UTC
Pronòstic vàlid del 25 a les 12 UTC al 26 a les 18 UTC
Vent 12 kt del Nord
Visibilitat: 6000 m
Temporalment
l' 25 a les 15 UTC al 25 a les 20 UTC
Visibilitat: 3000 m
sorra
Probabilitat 30%
entre 15 i 00 UTC
Temporalment
l' 26 a les 00 UTC al 26 a les 09 UTC
Visibilitat: 4000 m
Pols estès,

TAF: OIZH 251455Z 2512/2618 01012KT 6000 NSC TEMPO 2515/2520 3000 SA PROB30 1500 SA/DU TEMPO 2600/2609 4000 DU

Observacions i pronòstics meteorològics de més de 4000 aeroports (METAR i TAF).

Les estacions disponibles són els punts grocs i vermells al mapa.

Posi el ratolí al punt desitjat per veure el nom de l'estació.

Feu clic per veure les observacions i els pronòstics meteorològics.

Per canviar el mapa: feu clic els botons verds amb una creu de color negre per apropar; al botó verd amb un guió per allunyar la imatge; o en les fletxes verdes per a mapes adjacents.


METAR-TAF: